LRSM - SATU MARE

Compiled: 21:29:50 on 19/01/2018

Latest METAR/SPECI Reports

SPECI LRSM 192108Z AUTO 16005KT 5000 -SHRA FEW021/// SCT038/// BKN050/// 02/02 Q1010=

Previous reports

METAR LRSM 192100Z AUTO 16004KT 6000 -SHRA FEW007/// BKN033/// OVC055/// 02/02 Q1010=
SPECI LRSM 192045Z AUTO 16004KT 5000 -SHRA FEW006/// BKN020/// BKN033/// 02/02 Q1010=
METAR LRSM 192030Z AUTO 18004KT 6000 -SHRA FEW014/// SCT019/// BKN023/// 02/02 Q1010=
SPECI LRSM 192007Z AUTO VRB01KT 3700 SHRA FEW010/// SCT014/// BKN023/// 02/02 Q1010=

Latest TAF report

TAF AMD LRSM 191706Z 1917/1924 CNL=

Valid WARNINGS

No valid warnings for LRSM